Bodo, Norway

12:50 AM CEST on September 18, 2014 (GMT +0200)
Bodo | Change Station
CLOSE
Current Station
Airport
Location: Bodo,
Elevation: 43 ft
Nearby Weather Stations

Elev 43 ft 67.27 °N, 14.37 °E | Updated 30 minutes ago

Clear
Clear
48 °F
Feels Like 48 °F
N
7
Wind Variable Wind from ENE

Today
High -- | Low -- °F
--% Chance of Precip.
Yesterday
High -- | Low -- °F
Precip. -- in
6:29 AM 7:21 PM
Waning Crescent, 32% visible
Pressure 30.24 in
Visibility -9999.0 miles
Clouds
Dew Point 46 °F
Humidity 93%
Rainfall 0.00 in
Snow Depth Not available.
UV Not available.
Pollen Not available.
Air Quality Not available.
Flu Activity Not available.
METAR ENBO 172220Z 07006KT CAVOK 09/08 Q1024 NOSIG

More Conditions Fewer Conditions

Pressure 30.24 in
Visibility -9999.0 miles
Clouds
Dew Point 46 °F
Humidity 93%
Rainfall 0.00 in
Snow Depth Not available.
UV Not available.
Pollen Not available.
Air Quality Not available.
Flu Activity Not available.
METAR ENBO 172220Z 07006KT CAVOK 09/08 Q1024 NOSIG

More Conditions Fewer Conditions

10-Day Weather Forecast

Almanac

Astronomy

Sep. 18, 2014 Rise Set
Actual Time 6:29 AM CEST 7:21 PM CEST
Civil Twilight 5:34 AM CEST 8:16 PM CEST
Nautical Twilight 4:23 AM CEST 9:26 PM CEST
Astronomical Twilight 2:49 AM CEST 10:57 PM CEST
Moon No Moon Rise 5:46 PM CEST (9/18)
Length of Visible Light 14h 41m
Length of Day
12h 51m
Tomorrow will be 7m 27s shorter.
Waning Crescent, 32% of the Moon is Illuminated
Sep 17
Waning Crescent
Sep 24
New
Oct 1
First Quarter
Oct 8
Full
Oct 15
Last Quarter

Yesterday's Extremes

Country Highs Country Lows

Community

WunderPhotos

Upload Photos

1,754,185 photos uploaded!

Nearby

Snow Depth

Not available.

Earthquake Activity

City Distance Mag. Time & Date
No recent earthquake activity has been reported nearby.
Minimum magnitude displayed is 2.5.

Coastal Water Temperatures

Place Temperature
No Stations Reporting

Nearby Weather Stations